Time;durP1;ratioP1;P1;durP2;ratioP2;P2;SDS_P1;SDS_P2;PMS_P1;PMS_P2;Temp;Humidity;BMP_temperature;BMP_pressure;BME280_temperature;BME280_humidity;BME280_pressure;Samples;Min_cycle;Max_cycle;Signal;HPM_P1;HPM_P2
2022/12/23 00:01:32;;;;;;;4.53;2.33;;;26.90;99.90;;;;;;5114079;28;20192;-80
2022/12/23 00:04:03;;;;;;;3.40;2.30;;;26.90;99.90;;;;;;5114092;28;20272;-79
2022/12/23 00:06:34;;;;;;;2.47;2.10;;;27.10;99.90;;;;;;5113917;28;20192;-81
2022/12/23 00:09:05;;;;;;;4.43;2.47;;;27.30;99.90;;;;;;5114044;28;20274;-80
2022/12/23 00:15:03;;;;;;;4.35;2.28;;;27.40;99.90;;;;;;5113151;28;20199;-79
2022/12/23 00:17:24;;;;;;;5.03;2.53;;;27.60;99.90;;;;;;5077029;28;20573;-79
2022/12/23 00:19:55;;;;;;;6.03;2.25;;;27.70;99.90;;;;;;5113900;28;20191;-80
2022/12/23 00:25:10;;;;;;;3.25;2.17;;;28.10;99.90;;;;;;5113533;28;20199;-80
2022/12/23 00:27:40;;;;;;;4.90;2.38;;;28.30;99.90;;;;;;5113238;28;20196;-79
2022/12/23 00:30:14;;;;;;;4.63;2.38;;;28.30;99.90;;;;;;5113773;28;20191;-79
2022/12/23 00:32:46;;;;;;;4.65;2.60;;;28.30;99.90;;;;;;5113671;28;20733;-78
2022/12/23 00:35:16;;;;;;;3.63;2.00;;;28.30;99.90;;;;;;5113743;28;20188;-78
2022/12/23 00:37:47;;;;;;;5.35;2.20;;;28.40;99.90;;;;;;5113567;28;20231;-79
2022/12/23 00:43:04;;;;;;;5.03;2.20;;;28.60;99.90;;;;;;5109932;28;20245;-79
2022/12/23 00:45:37;;;;;;;2.90;2.10;;;28.70;99.90;;;;;;5113665;28;20187;-79
2022/12/23 00:50:55;;;;;;;2.13;1.88;;;28.70;99.90;;;;;;5113766;28;20294;-77
2022/12/23 00:53:26;;;;;;;3.83;1.92;;;28.70;99.90;;;;;;5113441;28;20274;-79
2022/12/23 00:55:56;;;;;;;3.60;1.90;;;28.70;99.90;;;;;;5113360;28;20196;-76
2022/12/23 00:58:27;;;;;;;3.80;1.80;;;28.80;99.90;;;;;;5113457;28;20188;-78
2022/12/23 01:06:35;;;;;;;3.95;2.05;;;28.80;99.90;;;;;;5113484;28;20654;-78
2022/12/23 01:09:06;;;;;;;4.18;2.10;;;28.80;99.90;;;;;;5113388;28;20198;-80
2022/12/23 01:11:37;;;;;;;2.38;1.73;;;28.90;99.90;;;;;;5113149;28;20669;-80
2022/12/23 01:14:09;;;;;;;2.75;2.08;;;29.00;99.90;;;;;;5113372;28;20557;-80
2022/12/23 01:16:42;;;;;;;3.38;1.92;;;29.10;99.90;;;;;;5113422;28;20188;-78
2022/12/23 01:19:13;;;;;;;2.95;1.80;;;29.30;99.90;;;;;;5113363;28;20283;-78
2022/12/23 01:21:44;;;;;;;5.55;2.03;;;29.50;99.90;;;;;;5113123;28;20737;-78
2022/12/23 01:24:14;;;;;;;3.55;2.10;;;29.60;99.90;;;;;;5112742;28;20259;-78
2022/12/23 01:26:45;;;;;;;2.75;2.10;;;29.50;99.90;;;;;;5112871;28;20198;-79
2022/12/23 01:29:16;;;;;;;2.83;1.92;;;29.70;99.90;;;;;;5113149;28;20198;-79
2022/12/23 01:31:49;;;;;;;3.72;2.13;;;29.90;99.90;;;;;;5113134;28;20272;-76
2022/12/23 01:34:19;;;;;;;70.20;7.45;;;29.80;99.90;;;;;;5113136;28;20644;-78
2022/12/23 01:36:50;;;;;;;5.03;2.30;;;29.40;99.90;;;;;;5113111;28;20715;-78
2022/12/23 01:39:21;;;;;;;4.78;2.53;;;29.00;99.90;;;;;;5094155;28;20267;-78
2022/12/23 01:44:53;;;;;;;4.45;2.00;;;29.20;99.90;;;;;;5074433;28;20714;-79
2022/12/23 01:47:31;;;;;;;2.42;1.88;;;29.60;99.90;;;;;;5076024;28;20193;-78
2022/12/23 01:50:07;;;;;;;3.83;2.08;;;29.90;99.90;;;;;;5076022;28;20197;-78
2022/12/23 01:52:43;;;;;;;3.00;1.65;;;30.30;99.90;;;;;;5075849;28;20195;-79
2022/12/23 01:55:18;;;;;;;3.97;2.08;;;30.50;99.90;;;;;;5076338;28;20640;-79
2022/12/23 01:57:49;;;;;;;3.97;1.80;;;30.60;99.90;;;;;;5075891;28;20272;-78
2022/12/23 02:09:15;;;;;;;3.22;1.63;;;30.30;99.90;;;;;;5075815;28;20287;-79
2022/12/23 02:12:09;;;;;;;4.07;2.67;;;30.70;99.90;;;;;;5075552;28;20554;-78
2022/12/23 02:18:02;;;;;;;2.25;1.67;;;31.20;99.90;;;;;;5075600;28;20310;-78
2022/12/23 02:20:53;;;;;;;2.97;1.90;;;31.10;99.90;;;;;;5075414;28;20276;-77
2022/12/23 02:24:06;;;;;;;3.13;2.22;;;31.10;99.90;;;;;;5074968;28;20219;-79
2022/12/23 02:27:23;;;;;;;4.75;1.92;;;31.10;99.90;;;;;;5033266;28;20285;-79
2022/12/23 02:30:25;;;;;;;3.17;1.75;;;31.10;99.90;;;;;;5020979;28;20207;-78
2022/12/23 02:33:30;;;;;;;3.78;1.90;;;31.10;99.90;;;;;;5074680;28;20209;-78
2022/12/23 02:36:12;;;;;;;2.38;1.65;;;31.00;99.90;;;;;;5075249;28;20319;-78
2022/12/23 05:08:35;;;;;;;3.00;1.60;;;27.10;99.90;;;;;;5085069;28;20560;-78
2022/12/23 05:11:06;;;;;;;4.43;1.73;;;26.90;99.90;;;;;;5070600;28;20198;-79
2022/12/23 05:13:37;;;;;;;3.83;1.60;;;27.00;99.90;;;;;;5070505;28;20626;-80
2022/12/23 05:16:08;;;;;;;3.00;1.70;;;27.20;99.90;;;;;;5065571;28;20181;-80
2022/12/23 05:18:39;;;;;;;2.95;1.50;;;27.20;99.90;;;;;;5070230;28;20192;-77
2022/12/23 05:21:10;;;;;;;4.80;1.70;;;27.10;99.90;;;;;;5068027;28;20276;-79
2022/12/23 05:23:42;;;;;;;3.03;1.30;;;27.10;99.90;;;;;;5068389;28;20185;-79
2022/12/23 05:26:13;;;;;;;1.65;1.25;;;27.20;99.90;;;;;;5070167;28;20724;-78
2022/12/23 05:28:44;;;;;;;2.15;1.50;;;26.80;99.90;;;;;;5070257;28;20240;-79
2022/12/23 05:31:16;;;;;;;2.45;1.30;;;26.80;99.90;;;;;;5060087;28;20550;-79
2022/12/23 05:33:47;;;;;;;2.75;1.40;;;26.90;99.90;;;;;;5051255;28;20190;-78
2022/12/23 05:36:18;;;;;;;3.05;1.65;;;26.80;99.90;;;;;;5050062;28;20272;-79
2022/12/23 05:38:50;;;;;;;1.90;1.38;;;26.90;99.90;;;;;;5050109;28;20630;-79
2022/12/23 05:41:21;;;;;;;2.33;1.55;;;26.90;99.90;;;;;;5049658;28;20227;-76
2022/12/23 05:43:52;;;;;;;1.73;1.20;;;26.90;99.90;;;;;;5044894;28;20199;-78
2022/12/23 05:46:23;;;;;;;4.55;1.20;;;26.70;99.90;;;;;;5030006;28;20277;-80
2022/12/23 05:48:53;;;;;;;2.72;1.40;;;26.70;99.90;;;;;;5030055;28;20270;-79
2022/12/23 05:51:24;;;;;;;3.55;1.50;;;26.70;99.90;;;;;;5037599;28;20273;-79
2022/12/23 05:53:57;;;;;;;2.58;1.30;;;26.60;99.90;;;;;;5044709;28;20281;-79
2022/12/23 05:56:28;;;;;;;2.60;1.35;;;26.50;99.90;;;;;;5049700;28;20196;-79
2022/12/23 05:58:58;;;;;;;1.83;1.30;;;26.50;99.90;;;;;;5050058;28;20653;-79
2022/12/23 06:01:29;;;;;;;2.25;1.40;;;26.50;99.90;;;;;;5047459;28;20277;-82
2022/12/23 06:04:00;;;;;;;1.70;1.20;;;26.60;99.90;;;;;;5035488;28;20240;-78
2022/12/23 06:06:31;;;;;;;1.40;1.20;;;26.80;99.90;;;;;;5049093;28;20757;-78
2022/12/23 06:09:04;;;;;;;1.45;1.08;;;26.80;99.90;;;;;;5049449;28;20223;-79
2022/12/23 06:11:34;;;;;;;2.75;1.17;;;26.80;99.90;;;;;;5049489;28;20194;-79
2022/12/23 06:14:06;;;;;;;1.73;1.15;;;26.80;99.90;;;;;;5049422;28;20280;-79
2022/12/23 06:16:36;;;;;;;3.97;1.50;;;26.80;99.90;;;;;;5039440;28;20196;-80
2022/12/23 06:19:07;;;;;;;2.63;1.33;;;26.80;99.90;;;;;;5024918;28;20609;-78
2022/12/23 06:21:38;;;;;;;1.50;1.25;;;26.80;99.90;;;;;;5024667;28;20231;-78
2022/12/23 06:24:11;;;;;;;1.92;1.15;;;26.70;99.90;;;;;;5030219;28;20694;-80
2022/12/23 06:26:42;;;;;;;1.48;0.90;;;26.60;99.90;;;;;;5019195;28;20209;-80
2022/12/23 06:29:13;;;;;;;4.40;1.10;;;26.50;99.90;;;;;;5031911;28;20202;-79
2022/12/23 06:31:44;;;;;;;2.70;1.10;;;26.40;99.90;;;;;;5019929;28;20286;-80
2022/12/23 06:34:15;;;;;;;3.20;1.30;;;26.30;99.90;;;;;;5024727;28;20281;-79
2022/12/23 06:36:46;;;;;;;2.95;1.50;;;26.30;99.90;;;;;;5016243;28;20750;-79
2022/12/23 06:39:19;;;;;;;2.08;1.20;;;26.10;99.90;;;;;;5017962;28;20282;-79
2022/12/23 06:41:49;;;;;;;1.25;0.90;;;26.10;99.90;;;;;;5022611;28;20567;-80
2022/12/23 06:44:20;;;;;;;2.83;1.20;;;26.00;99.90;;;;;;5026810;28;20281;-79
2022/12/23 06:46:51;;;;;;;1.70;1.20;;;25.90;99.90;;;;;;5031002;28;20300;-79
2022/12/23 06:49:22;;;;;;;2.78;1.13;;;25.80;99.90;;;;;;5026440;28;20202;-79
2022/12/23 06:51:53;;;;;;;3.33;1.50;;;25.70;99.90;;;;;;5029620;28;20194;-78
2022/12/23 06:54:25;;;;;;;2.90;1.25;;;25.60;99.90;;;;;;5015854;28;20195;-79
2022/12/23 06:56:56;;;;;;;2.95;1.17;;;25.50;99.90;;;;;;5020024;28;20198;-79
2022/12/23 06:59:27;;;;;;;2.28;1.20;;;25.40;99.90;;;;;;5019098;28;20202;-78
2022/12/23 07:01:58;;;;;;;2.97;1.30;;;25.40;99.90;;;;;;5032359;28;20187;-77
2022/12/23 07:04:29;;;;;;;3.53;1.10;;;25.60;99.90;;;;;;5031494;28;20190;-79
2022/12/23 07:07:00;;;;;;;3.58;1.20;;;25.70;99.90;;;;;;5030956;28;20236;-77
2022/12/23 07:09:32;;;;;;;2.55;1.40;;;25.90;99.90;;;;;;5031779;28;20193;-78
2022/12/23 07:12:05;;;;;;;4.03;1.30;;;25.90;99.90;;;;;;5029921;28;20197;-78
2022/12/23 07:14:36;;;;;;;3.50;1.30;;;26.00;99.90;;;;;;5022504;28;20319;-79
2022/12/23 07:17:06;;;;;;;2.13;1.23;;;25.90;99.90;;;;;;5029749;28;20248;-77
2022/12/23 07:19:37;;;;;;;2.00;1.08;;;25.70;99.90;;;;;;5032617;28;20572;-80
2022/12/23 07:22:09;;;;;;;2.45;1.30;;;25.60;99.90;;;;;;5028500;28;20204;-79
2022/12/23 07:24:41;;;;;;;4.03;1.45;;;25.50;99.90;;;;;;5025934;28;20556;-79
2022/12/23 07:27:12;;;;;;;2.78;1.20;;;25.50;99.90;;;;;;5030742;28;20210;-78
2022/12/23 07:29:43;;;;;;;4.00;1.40;;;25.40;99.90;;;;;;5031132;28;20204;-79
2022/12/23 07:32:13;;;;;;;1.58;1.30;;;25.20;99.90;;;;;;5031443;28;20566;-79
2022/12/23 07:34:44;;;;;;;1.95;1.30;;;25.10;99.90;;;;;;5024573;28;20200;-80
2022/12/23 07:37:15;;;;;;;3.40;1.10;;;25.00;99.90;;;;;;5022300;28;20208;-80
2022/12/23 07:39:48;;;;;;;2.22;1.33;;;25.00;99.90;;;;;;5033381;28;20631;-80
2022/12/23 07:42:19;;;;;;;2.17;1.45;;;25.10;99.90;;;;;;5030084;28;20230;-77
2022/12/23 07:44:49;;;;;;;2.92;1.15;;;25.00;99.90;;;;;;5026982;28;20214;-79
2022/12/23 07:47:20;;;;;;;4.47;1.20;;;24.90;99.90;;;;;;5028060;28;20778;-78
2022/12/23 07:49:51;;;;;;;2.00;1.20;;;24.90;99.90;;;;;;5023981;28;20210;-79
2022/12/23 07:52:22;;;;;;;3.40;1.20;;;24.90;99.90;;;;;;5020651;28;20202;-79
2022/12/23 07:54:55;;;;;;;3.05;1.20;;;24.90;99.90;;;;;;5021450;28;20213;-79
2022/12/23 07:57:25;;;;;;;1.33;1.23;;;25.00;99.90;;;;;;5026762;28;20220;-78
2022/12/23 07:59:56;;;;;;;3.63;1.30;;;25.10;99.90;;;;;;5024405;28;20209;-79
2022/12/23 08:02:27;;;;;;;2.45;1.23;;;25.20;99.90;;;;;;5020603;28;20701;-79
2022/12/23 08:04:58;;;;;;;2.20;1.17;;;25.10;99.90;;;;;;5023466;28;20221;-79
2022/12/23 08:07:28;;;;;;;1.65;1.20;;;25.00;99.90;;;;;;5018719;28;20238;-78
2022/12/23 08:10:01;;;;;;;3.65;1.77;;;24.90;99.90;;;;;;5019580;28;20212;-78
2022/12/23 08:12:32;;;;;;;2.63;1.15;;;24.90;99.90;;;;;;5021496;28;20199;-78
2022/12/23 08:15:03;;;;;;;1.85;1.10;;;24.90;99.90;;;;;;5028894;28;20196;-78
2022/12/23 08:17:34;;;;;;;2.17;1.50;;;24.80;99.90;;;;;;5032019;28;20198;-78
2022/12/23 08:20:05;;;;;;;3.90;1.67;;;24.70;99.90;;;;;;5027977;28;20205;-78
2022/12/23 08:22:35;;;;;;;4.57;1.67;;;24.60;99.90;;;;;;5027606;28;20291;-78
2022/12/23 08:25:09;;;;;;;3.13;1.50;;;24.60;99.90;;;;;;5020445;28;20201;-78
2022/12/23 08:27:39;;;;;;;3.33;1.50;;;24.60;99.90;;;;;;5020622;28;20222;-78
2022/12/23 08:30:11;;;;;;;2.22;1.40;;;24.50;99.90;;;;;;5027371;28;20198;-79
2022/12/23 08:32:42;;;;;;;2.33;1.50;;;24.40;99.90;;;;;;5031487;28;20202;-77
2022/12/23 08:35:13;;;;;;;2.53;1.45;;;24.30;99.90;;;;;;5026202;28;20280;-77
2022/12/23 08:37:44;;;;;;;2.05;1.60;;;24.20;99.90;;;;;;5027281;28;20202;-78
2022/12/23 08:40:16;;;;;;;3.58;1.60;;;24.10;99.90;;;;;;5030977;28;20190;-77
2022/12/23 08:42:47;;;;;;;4.20;2.05;;;24.10;99.90;;;;;;5032519;28;20280;-77
2022/12/23 08:45:18;;;;;;;3.53;2.10;;;24.00;99.90;;;;;;5019223;28;20210;-77
2022/12/23 08:47:49;;;;;;;4.57;1.80;;;23.90;99.90;;;;;;5023245;28;20222;-78
2022/12/23 08:50:20;;;;;;;3.30;1.73;;;23.80;99.90;;;;;;5031731;28;20282;-78
2022/12/23 08:52:50;;;;;;;4.15;2.10;;;23.70;99.90;;;;;;5025957;28;20278;-78
2022/12/23 08:55:23;;;;;;;2.33;1.85;;;23.60;99.90;;;;;;5019044;28;20202;-79
2022/12/23 08:57:54;;;;;;;4.40;1.80;;;23.60;99.90;;;;;;5020591;28;20297;-77
2022/12/23 09:00:25;;;;;;;2.95;2.15;;;23.50;99.90;;;;;;5032605;28;20715;-78
2022/12/23 09:02:56;;;;;;;4.30;2.00;;;23.40;99.90;;;;;;5025673;28;20229;-78
2022/12/23 09:05:26;;;;;;;3.67;1.80;;;23.40;99.90;;;;;;5030290;28;20196;-78
2022/12/23 09:07:57;;;;;;;3.03;1.70;;;23.40;99.90;;;;;;5025846;28;20237;-78
2022/12/23 09:10:30;;;;;;;2.75;1.88;;;23.30;99.90;;;;;;5026949;28;20273;-77
2022/12/23 09:13:01;;;;;;;4.60;1.90;;;23.30;99.90;;;;;;5029896;28;20559;-78
2022/12/23 09:15:31;;;;;;;3.17;1.85;;;23.30;99.90;;;;;;5027322;28;20190;-78
2022/12/23 09:18:02;;;;;;;3.25;1.77;;;23.20;99.90;;;;;;5032495;28;20277;-78
2022/12/23 09:20:33;;;;;;;3.22;1.83;;;23.20;99.90;;;;;;5027415;28;20206;-78
2022/12/23 09:23:04;;;;;;;2.47;1.60;;;23.20;99.90;;;;;;5028167;28;20218;-78
2022/12/23 09:25:38;;;;;;;3.50;1.80;;;23.20;99.90;;;;;;5023590;28;20194;-78
2022/12/23 09:28:11;;;;;;;2.70;1.50;;;23.10;99.90;;;;;;5021825;28;20217;-78
2022/12/23 09:30:41;;;;;;;3.10;1.80;;;23.10;99.90;;;;;;5032483;28;20202;-78
2022/12/23 09:33:12;;;;;;;7.30;1.90;;;23.10;99.90;;;;;;5030921;28;20706;-78
2022/12/23 09:35:43;;;;;;;3.60;1.42;;;23.10;99.90;;;;;;5032854;28;20273;-78
2022/12/23 09:38:14;;;;;;;4.82;1.80;;;23.00;99.90;;;;;;5027258;28;20291;-78
2022/12/23 09:40:47;;;;;;;2.80;1.60;;;23.00;99.90;;;;;;5030943;28;20190;-78
2022/12/23 09:43:30;;;;;;;3.20;1.80;;;23.00;99.90;;;;;;5020477;28;20197;-78
2022/12/23 09:46:08;;;;;;;3.30;1.77;;;23.00;99.90;;;;;;5023592;28;20293;-78
2022/12/23 09:48:44;;;;;;;2.97;1.45;;;23.00;99.90;;;;;;5019767;28;20679;-78
2022/12/23 09:51:18;;;;;;;2.85;1.80;;;23.00;99.90;;;;;;5024555;28;20202;-78
2022/12/23 09:53:58;;;;;;;3.40;1.95;;;23.00;99.90;;;;;;5019918;28;20187;-78
2022/12/23 09:56:39;;;;;;;3.70;2.92;;;23.00;99.90;;;;;;5021837;28;20658;-78
2022/12/23 09:59:24;;;;;;;3.50;2.28;;;23.00;99.90;;;;;;5023405;28;20206;-78
2022/12/23 10:02:00;;;;;;;3.78;2.20;;;22.90;99.90;;;;;;5032373;28;20194;-78
2022/12/23 10:04:53;;;;;;;3.20;2.05;;;22.90;99.90;;;;;;5030179;28;20195;-78
2022/12/23 10:07:34;;;;;;;4.30;2.08;;;22.90;99.90;;;;;;5018024;28;20233;-78
2022/12/23 10:10:16;;;;;;;2.67;2.10;;;22.90;99.90;;;;;;5016264;28;20199;-78
2022/12/23 10:12:51;;;;;;;3.00;2.30;;;22.80;99.90;;;;;;5029390;28;20194;-79
2022/12/23 10:15:29;;;;;;;4.22;2.50;;;22.80;99.90;;;;;;5016675;28;20206;-78
2022/12/23 10:18:05;;;;;;;3.50;2.20;;;22.80;99.90;;;;;;5021689;28;20197;-78
2022/12/23 10:20:42;;;;;;;4.15;2.50;;;22.80;99.90;;;;;;5023783;28;20202;-78
2022/12/23 10:23:22;;;;;;;6.07;2.50;;;22.80;99.90;;;;;;5021752;28;20225;-78
2022/12/23 10:25:54;;;;;;;4.72;2.80;;;22.70;99.90;;;;;;5017060;28;20656;-78
2022/12/23 10:28:27;;;;;;;3.97;2.15;;;22.70;99.90;;;;;;5021595;28;20214;-78
2022/12/23 10:31:05;;;;;;;3.28;2.10;;;22.70;99.90;;;;;;5020726;28;20195;-78
2022/12/23 10:33:45;;;;;;;3.10;2.03;;;22.60;99.90;;;;;;5023311;28;20190;-78
2022/12/23 10:36:20;;;;;;;3.38;1.92;;;22.60;99.90;;;;;;5020908;28;20195;-78
2022/12/23 10:38:57;;;;;;;3.17;2.00;;;22.60;99.90;;;;;;5016005;28;20197;-78
2022/12/23 10:41:38;;;;;;;3.30;2.15;;;22.50;99.90;;;;;;5015857;28;20649;-79
2022/12/23 10:44:43;;;;;;;4.35;1.90;;;22.50;99.90;;;;;;5019404;28;20270;-78
2022/12/23 10:47:23;;;;;;;2.78;2.03;;;22.50;99.90;;;;;;5022168;28;20309;-78
2022/12/23 10:50:04;;;;;;;3.58;2.00;;;22.40;99.90;;;;;;5029437;28;20222;-78
2022/12/23 10:52:39;;;;;;;4.55;2.25;;;22.40;99.90;;;;;;5017222;28;20199;-79
2022/12/23 10:55:22;;;;;;;3.13;1.83;;;22.30;99.90;;;;;;5017569;28;20274;-79
2022/12/23 10:57:54;;;;;;;4.85;2.20;;;22.30;99.90;;;;;;5018348;28;20202;-79
2022/12/23 11:00:27;;;;;;;3.17;2.30;;;22.20;99.90;;;;;;5030579;28;20237;-78
2022/12/23 11:03:11;;;;;;;4.07;2.50;;;22.20;99.90;;;;;;5018792;28;20743;-79
2022/12/23 11:05:43;;;;;;;3.78;2.50;;;22.10;99.90;;;;;;5016205;28;20195;-79
2022/12/23 11:08:14;;;;;;;3.90;2.50;;;22.10;99.90;;;;;;5022303;28;20651;-79
2022/12/23 11:10:45;;;;;;;3.83;2.63;;;22.10;99.90;;;;;;5033872;28;20262;-79
2022/12/23 11:13:26;;;;;;;5.80;2.97;;;22.10;99.90;;;;;;5016926;28;20306;-79
2022/12/23 11:16:18;;;;;;;4.65;2.80;;;22.10;99.90;;;;;;5018260;28;20194;-80
2022/12/23 11:19:03;;;;;;;4.10;2.63;;;22.10;99.90;;;;;;5029032;28;20277;-79
2022/12/23 11:21:34;;;;;;;4.13;2.55;;;22.00;99.90;;;;;;5028379;28;20197;-80
2022/12/23 11:24:21;;;;;;;4.03;2.30;;;22.00;99.90;;;;;;5030298;28;20197;-79
2022/12/23 11:27:00;;;;;;;3.83;2.25;;;22.00;99.90;;;;;;5022035;28;20207;-79
2022/12/23 11:29:34;;;;;;;5.13;2.50;;;22.00;99.90;;;;;;5019470;28;20273;-79
2022/12/23 11:32:17;;;;;;;4.28;2.40;;;22.00;99.90;;;;;;5014304;28;20206;-79
2022/12/23 11:34:49;;;;;;;4.22;2.30;;;21.90;99.90;;;;;;5023170;28;20281;-79
2022/12/23 11:37:38;;;;;;;4.53;2.47;;;21.90;99.90;;;;;;5034210;28;20637;-79
2022/12/23 11:40:22;;;;;;;4.55;2.38;;;21.90;99.90;;;;;;5014728;28;20195;-79
2022/12/23 11:42:57;;;;;;;2.80;2.35;;;21.80;99.90;;;;;;5014762;28;20279;-79
2022/12/23 11:45:30;;;;;;;3.53;2.42;;;21.80;99.90;;;;;;5014573;28;20195;-77
2022/12/23 11:48:04;;;;;;;4.20;2.28;;;21.80;99.90;;;;;;5014423;28;20282;-78
2022/12/23 11:50:37;;;;;;;3.50;2.17;;;21.80;99.90;;;;;;5029509;28;20202;-78
2022/12/23 11:53:14;;;;;;;4.68;2.50;;;21.80;99.90;;;;;;5028858;28;20198;-78
2022/12/23 11:55:58;;;;;;;5.28;2.50;;;21.80;99.90;;;;;;5019423;28;20293;-78
2022/12/23 11:58:31;;;;;;;4.45;2.55;;;21.80;99.90;;;;;;5018825;28;20202;-77
2022/12/23 12:01:08;;;;;;;4.28;2.60;;;21.70;99.90;;;;;;5028279;28;20222;-77
2022/12/23 12:03:49;;;;;;;3.58;2.65;;;21.70;99.90;;;;;;5022276;28;20202;-77
2022/12/23 12:06:23;;;;;;;5.05;2.47;;;21.70;99.90;;;;;;5023486;28;20285;-77
2022/12/23 12:08:55;;;;;;;5.78;2.60;;;21.70;99.90;;;;;;5015645;28;20228;-77
2022/12/23 12:11:29;;;;;;;4.80;2.47;;;21.70;99.90;;;;;;5029852;28;20277;-78
2022/12/23 12:14:04;;;;;;;3.97;2.53;;;21.70;99.90;;;;;;5028473;28;20277;-78
2022/12/23 12:16:52;;;;;;;4.10;2.50;;;21.70;99.90;;;;;;5032448;28;20280;-78
2022/12/23 12:19:27;;;;;;;4.55;2.80;;;21.60;99.90;;;;;;5033902;28;20206;-78
2022/12/23 12:22:02;;;;;;;3.63;2.40;;;21.60;99.90;;;;;;5020481;28;20709;-77
2022/12/23 12:24:40;;;;;;;5.47;2.47;;;21.60;99.90;;;;;;5024058;28;20287;-78
2022/12/23 12:27:12;;;;;;;4.63;2.60;;;21.60;99.90;;;;;;5033375;28;20193;-77
2022/12/23 12:29:48;;;;;;;3.25;2.45;;;21.50;99.90;;;;;;5022674;28;20226;-77
2022/12/23 12:32:24;;;;;;;3.45;2.40;;;21.50;99.90;;;;;;5013566;28;20738;-77
2022/12/23 12:35:02;;;;;;;3.55;2.70;;;21.50;99.90;;;;;;5013847;28;20190;-77
2022/12/23 12:37:39;;;;;;;3.70;2.70;;;21.50;99.90;;;;;;5014161;28;20281;-78
2022/12/23 12:40:25;;;;;;;4.65;2.67;;;21.50;99.90;;;;;;5013916;28;20646;-78
2022/12/23 12:43:03;;;;;;;5.82;2.83;;;21.50;99.90;;;;;;5028750;28;20187;-78
2022/12/23 12:45:41;;;;;;;4.20;2.63;;;21.50;99.90;;;;;;5030999;28;20190;-77
2022/12/23 12:48:41;;;;;;;3.20;2.50;;;21.40;99.90;;;;;;5024699;28;20250;-77
2022/12/23 12:51:24;;;;;;;5.13;3.00;;;21.50;99.90;;;;;;5030835;28;20291;-77
2022/12/23 12:54:08;;;;;;;4.13;2.95;;;21.50;99.90;;;;;;5033494;28;20297;-77
2022/12/23 12:56:42;;;;;;;5.85;3.10;;;21.50;99.90;;;;;;5017197;28;20191;-78
2022/12/23 12:59:18;;;;;;;6.13;2.97;;;21.50;99.90;;;;;;5027516;28;20222;-78
2022/12/23 13:02:01;;;;;;;5.18;3.10;;;21.40;99.90;;;;;;5022815;28;20645;-78
2022/12/23 13:04:48;;;;;;;4.53;2.75;;;21.40;99.90;;;;;;5015471;28;20202;-78
2022/12/23 13:07:29;;;;;;;9.00;3.15;;;21.40;99.90;;;;;;5016558;28;20234;-79
2022/12/23 13:10:05;;;;;;;6.00;2.97;;;21.40;99.90;;;;;;5025595;28;20304;-78
2022/12/23 13:12:46;;;;;;;7.15;3.03;;;21.40;99.90;;;;;;5013064;28;20210;-78
2022/12/23 13:15:24;;;;;;;8.40;2.90;;;21.40;99.90;;;;;;5017107;28;20201;-78
2022/12/23 13:18:14;;;;;;;5.10;3.28;;;21.30;99.90;;;;;;5020545;28;20197;-77
2022/12/23 13:20:50;;;;;;;5.38;3.30;;;21.30;99.90;;;;;;5019429;28;20285;-78
2022/12/23 13:23:28;;;;;;;4.65;2.85;;;21.30;99.90;;;;;;5018768;28;20195;-78
2022/12/23 13:26:03;;;;;;;6.70;3.05;;;21.30;99.90;;;;;;5026482;28;20321;-77
2022/12/23 13:28:42;;;;;;;6.97;2.80;;;21.30;99.90;;;;;;5019087;28;20202;-78
2022/12/23 13:31:27;;;;;;;4.78;2.80;;;21.30;99.90;;;;;;5021039;28;20285;-78
2022/12/23 13:34:06;;;;;;;4.32;2.60;;;21.30;99.90;;;;;;5036947;28;20194;-77
2022/12/23 13:36:47;;;;;;;4.53;2.70;;;21.30;99.90;;;;;;5033670;28;20200;-78
2022/12/23 13:39:34;;;;;;;4.97;2.70;;;21.30;99.90;;;;;;5017177;28;20220;-78
2022/12/23 13:42:06;;;;;;;4.50;2.50;;;21.30;99.90;;;;;;5016977;28;20191;-78
2022/12/23 13:44:37;;;;;;;3.72;2.28;;;21.30;99.90;;;;;;5015144;23;20231;-79
2022/12/23 13:47:14;;;;;;;6.20;2.58;;;21.30;99.90;;;;;;5010049;28;20277;-79
2022/12/23 13:50:01;;;;;;;4.97;2.60;;;21.30;99.90;;;;;;5016491;28;20542;-78
2022/12/23 13:52:46;;;;;;;4.15;2.13;;;21.30;99.90;;;;;;5010675;28;20187;-78
2022/12/23 13:55:29;;;;;;;5.05;2.20;;;21.30;99.90;;;;;;5015822;28;20199;-78
2022/12/23 13:58:05;;;;;;;5.10;2.08;;;21.30;99.90;;;;;;5013844;28;20187;-78
2022/12/23 14:00:36;;;;;;;3.38;2.00;;;21.30;99.90;;;;;;5013488;28;20277;-77
2022/12/23 14:03:23;;;;;;;5.90;2.13;;;21.30;99.90;;;;;;5016059;28;20703;-79
2022/12/23 14:05:55;;;;;;;5.45;2.55;;;21.30;99.90;;;;;;5015278;28;20193;-78
2022/12/23 14:08:40;;;;;;;6.28;3.00;;;21.20;99.90;;;;;;5015916;28;20187;-78
2022/12/23 14:11:20;;;;;;;4.20;2.63;;;21.20;99.90;;;;;;5014970;28;20222;-77
2022/12/23 14:13:58;;;;;;;3.53;2.53;;;21.20;99.90;;;;;;5014694;28;20676;-78
2022/12/23 14:16:47;;;;;;;3.58;2.58;;;21.20;99.90;;;;;;5013068;28;20274;-78
2022/12/23 14:19:33;;;;;;;4.25;2.75;;;21.20;99.90;;;;;;5008480;28;20349;-78
2022/12/23 14:22:14;;;;;;;4.47;2.90;;;21.10;99.90;;;;;;5016077;28;20191;-78
2022/12/23 14:25:23;;;;;;;5.95;3.00;;;21.10;99.90;;;;;;5015870;28;20197;-78
2022/12/23 14:28:03;;;;;;;4.63;3.10;;;21.00;99.90;;;;;;5015948;28;20290;-78
2022/12/23 14:30:37;;;;;;;4.57;3.00;;;20.90;99.90;;;;;;5016214;28;20260;-78
2022/12/23 14:33:23;;;;;;;5.30;3.20;;;20.90;99.90;;;;;;5016287;28;20198;-77
2022/12/23 14:35:56;;;;;;;5.55;2.85;;;20.90;99.90;;;;;;4996629;28;20206;-78
2022/12/23 14:38:33;;;;;;;5.07;3.00;;;20.90;99.90;;;;;;5015582;28;20213;-78
2022/12/23 14:41:38;;;;;;;4.32;2.95;;;20.90;99.90;;;;;;5015349;28;20245;-78
2022/12/23 14:44:21;;;;;;;5.57;3.05;;;20.90;99.90;;;;;;5001589;28;20228;-78
2022/12/23 14:46:57;;;;;;;5.50;2.80;;;20.90;99.90;;;;;;4972931;28;20206;-78
2022/12/23 14:49:43;;;;;;;3.55;2.90;;;20.90;99.90;;;;;;4976807;28;20224;-78
2022/12/23 14:52:40;;;;;;;3.78;2.67;;;20.90;99.90;;;;;;4976799;28;20251;-78
2022/12/23 14:55:47;;;;;;;3.55;2.78;;;20.90;99.90;;;;;;4976186;28;20271;-78
2022/12/23 14:58:51;;;;;;;4.78;2.60;;;20.90;99.90;;;;;;4976310;28;20203;-79
2022/12/23 15:01:31;;;;;;;5.43;3.15;;;20.90;99.90;;;;;;4958663;28;20214;-78
2022/12/23 15:04:07;;;;;;;6.10;3.17;;;20.80;99.90;;;;;;4956990;29;20241;-79
2022/12/23 15:06:41;;;;;;;4.32;3.13;;;20.90;99.90;;;;;;4957329;29;20284;-78
2022/12/23 15:09:20;;;;;;;5.05;2.92;;;20.90;99.90;;;;;;4957073;29;20271;-79
2022/12/23 15:11:51;;;;;;;4.53;2.65;;;20.90;99.90;;;;;;4963447;28;20188;-79
2022/12/23 15:14:32;;;;;;;3.35;2.83;;;20.80;99.90;;;;;;4972856;28;20207;-79
2022/12/23 15:17:18;;;;;;;4.00;2.70;;;20.80;99.90;;;;;;4974517;28;20270;-79
2022/12/23 15:19:49;;;;;;;3.70;2.70;;;20.80;99.90;;;;;;4971926;28;20201;-79
2022/12/23 15:22:20;;;;;;;3.55;2.22;;;20.80;99.90;;;;;;4973364;28;20196;-78
2022/12/23 15:24:51;;;;;;;3.80;2.70;;;20.90;99.90;;;;;;4976022;28;20691;-79
2022/12/23 15:27:22;;;;;;;3.95;2.60;;;20.90;99.90;;;;;;4975727;28;20196;-79
2022/12/23 15:29:55;;;;;;;4.45;2.45;;;20.80;99.90;;;;;;4975744;28;20222;-78
2022/12/23 15:32:29;;;;;;;3.25;2.50;;;20.80;99.90;;;;;;4975892;28;20528;-78
2022/12/23 15:35:05;;;;;;;4.15;2.63;;;20.80;99.90;;;;;;4969852;28;20198;-78
2022/12/23 15:37:36;;;;;;;4.63;2.92;;;20.80;99.90;;;;;;4975495;28;20227;-78
2022/12/23 15:40:08;;;;;;;3.85;2.38;;;20.70;99.90;;;;;;4970481;28;20683;-78
2022/12/23 15:42:38;;;;;;;4.57;2.53;;;20.70;99.90;;;;;;4956588;29;20211;-78
2022/12/23 15:45:33;;;;;;;4.50;2.60;;;20.70;99.90;;;;;;4959734;28;20331;-78
2022/12/23 15:48:07;;;;;;;3.78;2.30;;;20.60;99.90;;;;;;4974218;28;20226;-78
2022/12/23 15:50:41;;;;;;;5.35;2.65;;;20.60;99.90;;;;;;4975510;28;20650;-78
2022/12/23 15:53:17;;;;;;;2.80;2.45;;;20.60;99.90;;;;;;4975150;28;20279;-78
2022/12/23 15:55:49;;;;;;;3.03;2.75;;;20.60;99.90;;;;;;4975390;28;20196;-78
2022/12/23 15:58:23;;;;;;;3.97;2.53;;;20.50;99.90;;;;;;4975374;28;20285;-79
2022/12/23 16:00:56;;;;;;;3.88;2.50;;;20.50;99.90;;;;;;4975480;28;20196;-78
2022/12/23 16:03:35;;;;;;;4.38;2.55;;;20.50;99.90;;;;;;4975343;28;20197;-78
2022/12/23 16:06:19;;;;;;;3.22;2.60;;;20.40;99.90;;;;;;4974358;28;20201;-79
2022/12/23 16:08:59;;;;;;;3.55;2.65;;;20.40;99.90;;;;;;4975335;28;20243;-81
2022/12/23 16:11:42;;;;;;;3.15;2.42;;;20.40;99.90;;;;;;4972657;28;20216;-81
2022/12/23 16:14:33;;;;;;;3.58;2.42;;;20.40;99.90;;;;;;4971112;28;20210;-80
2022/12/23 16:17:15;;;;;;;3.30;2.58;;;20.40;99.90;;;;;;4968252;28;20204;-80
2022/12/23 16:19:49;;;;;;;2.65;2.45;;;20.30;99.90;;;;;;4972405;28;20196;-81
2022/12/23 16:22:31;;;;;;;2.70;2.42;;;20.30;99.90;;;;;;4973991;28;20742;-79
2022/12/23 16:25:13;;;;;;;3.58;2.60;;;20.30;99.90;;;;;;4969709;28;20661;-80
2022/12/23 16:27:47;;;;;;;4.70;2.65;;;20.20;99.90;;;;;;4968332;28;20718;-80
2022/12/23 16:30:20;;;;;;;5.05;2.75;;;20.20;99.90;;;;;;4973866;28;20713;-80
2022/12/23 16:32:55;;;;;;;2.80;2.60;;;20.10;99.90;;;;;;4973776;28;20196;-80
2022/12/23 16:35:35;;;;;;;4.53;2.70;;;20.10;99.90;;;;;;4973829;28;20283;-80